Time;durP1;ratioP1;P1;durP2;ratioP2;P2;SDS_P1;SDS_P2;PMS_P1;PMS_P2;Temp;Humidity;BMP_temperature;BMP_pressure;BME280_temperature;BME280_humidity;BME280_pressure;Samples;Min_cycle;Max_cycle;Signal;HPM_P1;HPM_P2
2022/07/21 00:02:04;;;;;;;;;;;;;;;22.52;76.54;97164.31;600671;236;62716;-73
2022/07/21 00:04:32;;;;;;;;;;;;;;;22.52;76.45;97173.14;600652;236;67245;-73
2022/07/21 00:06:59;;;;;;;;;;;;;;;22.52;76.49;97161.64;600688;236;66994;-73
2022/07/21 00:09:27;;;;;;;;;;;;;;;22.52;76.56;97161.64;600705;236;65050;-73
2022/07/21 00:11:55;;;;;;;;;;;;;;;22.52;76.47;97167.78;600619;236;64527;-73
2022/07/21 00:14:22;;;;;;;;;;;;;;;22.53;76.48;97163.23;600665;236;64801;-73
2022/07/21 00:16:50;;;;;;;;;;;;;;;22.53;76.47;97164.02;600650;236;62745;-73
2022/07/21 00:19:17;;;;;;;;;;;;;;;22.53;76.55;97168.58;600666;236;65065;-73
2022/07/21 00:21:45;;;;;;;;;;;;;;;22.53;76.50;97165.91;600670;236;64708;-73
2022/07/21 00:24:12;;;;;;;;;;;;;;;22.53;76.55;97157.87;600637;236;62749;-73
2022/07/21 00:26:41;;;;;;;;;;;;;;;22.53;76.61;97163.23;600657;236;67387;-73
2022/07/21 00:29:09;;;;;;;;;;;;;;;22.52;76.55;97162.43;600666;236;64439;-73
2022/07/21 00:31:37;;;;;;;;;;;;;;;22.53;76.72;97163.23;600651;236;66039;-73
2022/07/21 00:34:04;;;;;;;;;;;;;;;22.53;76.75;97163.23;600721;236;64426;-73
2022/07/21 00:36:32;;;;;;;;;;;;;;;22.52;76.60;97166.99;600710;236;64712;-66
2022/07/21 00:38:59;;;;;;;;;;;;;;;22.53;76.55;97173.94;600662;236;64712;-66
2022/07/21 00:41:27;;;;;;;;;;;;;;;22.53;76.58;97165.91;600675;236;66777;-66
2022/07/21 00:43:54;;;;;;;;;;;;;;;22.52;76.63;97167.78;600693;236;66634;-66
2022/07/21 00:46:22;;;;;;;;;;;;;;;22.53;76.56;97165.91;600679;236;64870;-66
2022/07/21 00:48:49;;;;;;;;;;;;;;;22.52;76.55;97165.11;600701;236;66582;-66
2022/07/21 00:51:17;;;;;;;;;;;;;;;22.53;76.64;97157.87;600660;236;64581;-66
2022/07/21 00:53:44;;;;;;;;;;;;;;;22.52;76.64;97153.60;600683;236;64460;-66
2022/07/21 00:56:12;;;;;;;;;;;;;;;22.53;76.68;97157.87;598293;236;65544;-66
2022/07/21 00:58:40;;;;;;;;;;;;;;;22.52;76.67;97157.08;596287;238;64377;-66
2022/07/21 01:01:08;;;;;;;;;;;;;;;22.53;76.67;97152.52;596268;238;65197;-66
2022/07/21 01:03:37;;;;;;;;;;;;;;;22.52;76.67;97148.24;596228;238;67054;-66
2022/07/21 01:06:05;;;;;;;;;;;;;;;22.51;76.61;97147.45;596211;238;67642;-66
2022/07/21 01:08:32;;;;;;;;;;;;;;;22.51;76.76;97152.81;596254;238;65034;-66
2022/07/21 01:11:00;;;;;;;;;;;;;;;22.52;76.84;97151.72;596277;238;64895;-66
2022/07/21 01:13:29;;;;;;;;;;;;;;;22.52;76.81;97150.92;596240;238;67264;-66
2022/07/21 01:15:56;;;;;;;;;;;;;;;22.52;76.68;97150.92;596251;238;65150;-66
2022/07/21 01:18:24;;;;;;;;;;;;;;;22.52;76.68;97150.92;596208;235;67324;-66
2022/07/21 01:20:53;;;;;;;;;;;;;;;22.52;76.61;97151.72;596267;238;67024;-66
2022/07/21 01:23:21;;;;;;;;;;;;;;;22.52;76.61;97146.36;596261;238;63653;-66
2022/07/21 01:25:49;;;;;;;;;;;;;;;22.52;76.63;97146.36;596257;238;66817;-66
2022/07/21 01:28:17;;;;;;;;;;;;;;;22.51;76.60;97147.45;596240;238;67069;-66
2022/07/21 01:30:45;;;;;;;;;;;;;;;22.51;76.59;97149.33;596226;238;65084;-66
2022/07/21 01:33:12;;;;;;;;;;;;;;;22.51;76.66;97144.77;596234;238;67239;-66
2022/07/21 01:35:41;;;;;;;;;;;;;;;22.51;76.76;97134.06;596276;238;64704;-65
2022/07/21 01:41:28;;;;;;;;;;;;;;;22.52;76.69;97145.56;596260;238;64930;-66
2022/07/21 01:43:23;;;;;;;;;;;;;;;22.52;76.83;97145.56;596238;238;64818;-65
2022/07/21 01:45:51;;;;;;;;;;;;;;;22.52;76.77;97134.86;596261;238;65210;-65
2022/07/21 01:48:18;;;;;;;;;;;;;;;22.51;76.69;97134.06;596315;238;66677;-65
2022/07/21 01:50:45;;;;;;;;;;;;;;;22.51;76.75;97135.94;596277;238;66707;-65
2022/07/21 01:53:13;;;;;;;;;;;;;;;22.52;76.76;97132.17;596268;238;62775;-65
2022/07/21 01:55:40;;;;;;;;;;;;;;;22.51;76.79;97130.59;596225;238;64390;-65
2022/07/21 01:58:08;;;;;;;;;;;;;;;22.51;76.76;97133.27;596257;238;66710;-65
2022/07/21 02:00:35;;;;;;;;;;;;;;;22.51;76.75;97130.59;596267;238;64883;-65
2022/07/21 02:03:03;;;;;;;;;;;;;;;22.51;76.81;97127.91;596282;238;66728;-65
2022/07/21 02:05:31;;;;;;;;;;;;;;;22.51;76.73;97127.91;596265;238;66923;-65
2022/07/21 02:07:58;;;;;;;;;;;;;;;22.51;76.75;97127.91;596258;238;64956;-65
2022/07/21 02:10:26;;;;;;;;;;;;;;;22.51;76.74;97125.23;596270;238;64231;-65
2022/07/21 02:12:53;;;;;;;;;;;;;;;22.51;76.79;97114.52;596270;238;66600;-65
2022/07/21 02:15:21;;;;;;;;;;;;;;;22.51;76.76;97117.99;596250;238;64858;-65
2022/07/21 02:17:48;;;;;;;;;;;;;;;22.51;76.76;97122.55;596286;238;64566;-65
2022/07/21 02:20:16;;;;;;;;;;;;;;;22.50;76.85;97113.69;596235;238;64827;-65
2022/07/21 02:22:45;;;;;;;;;;;;;;;22.50;76.80;97113.69;596274;238;65217;-65
2022/07/21 02:25:12;;;;;;;;;;;;;;;22.50;76.82;97116.38;596221;238;64536;-66
2022/07/21 02:27:40;;;;;;;;;;;;;;;22.52;76.85;97118.78;596298;238;64683;-65
2022/07/21 02:30:08;;;;;;;;;;;;;;;22.51;76.82;97114.52;596268;238;62750;-73
2022/07/21 02:32:36;;;;;;;;;;;;;;;22.51;76.87;97112.63;596289;238;67016;-72
2022/07/21 02:35:03;;;;;;;;;;;;;;;22.50;76.78;97107.55;596271;238;66621;-72
2022/07/21 02:37:31;;;;;;;;;;;;;;;22.51;76.86;97101.12;596287;238;65072;-73
2022/07/21 02:39:59;;;;;;;;;;;;;;;22.51;76.73;97103.80;596239;238;66596;-73
2022/07/21 02:42:26;;;;;;;;;;;;;;;22.50;76.83;97104.86;596281;238;66644;-72
2022/07/21 02:44:53;;;;;;;;;;;;;;;22.50;76.74;97100.30;596218;238;66109;-72
2022/07/21 02:47:21;;;;;;;;;;;;;;;22.50;76.85;97096.83;596266;238;67309;-72
2022/07/21 02:49:49;;;;;;;;;;;;;;;22.51;76.79;97101.12;596264;238;67567;-72
2022/07/21 02:52:16;;;;;;;;;;;;;;;22.51;76.88;97101.12;596236;238;64920;-73
2022/07/21 02:54:44;;;;;;;;;;;;;;;22.50;76.96;97099.51;596262;238;66800;-72
2022/07/21 02:57:11;;;;;;;;;;;;;;;22.50;76.92;97104.86;600409;236;66811;-72
2022/07/21 02:59:39;;;;;;;;;;;;;;;22.50;76.85;97099.51;600718;236;64912;-72
2022/07/21 03:02:06;;;;;;;;;;;;;;;22.51;76.94;97111.84;600728;236;66711;-73
2022/07/21 03:04:34;;;;;;;;;;;;;;;22.50;76.86;97099.51;600714;236;64463;-73
2022/07/21 03:07:02;;;;;;;;;;;;;;;22.50;76.80;97105.66;600685;236;63189;-72
2022/07/21 03:09:30;;;;;;;;;;;;;;;22.50;76.84;97105.66;600670;236;66804;-73
2022/07/21 03:11:57;;;;;;;;;;;;;;;22.50;76.85;97104.86;600719;236;66942;-72
2022/07/21 03:14:25;;;;;;;;;;;;;;;22.50;76.77;97099.51;600708;236;62725;-72
2022/07/21 03:16:52;;;;;;;;;;;;;;;22.50;76.72;97108.34;600679;236;66597;-72
2022/07/21 03:19:20;;;;;;;;;;;;;;;22.51;76.69;97106.48;600704;236;64370;-65
2022/07/21 03:21:47;;;;;;;;;;;;;;;22.52;76.65;97097.36;600710;236;65130;-65
2022/07/21 03:24:15;;;;;;;;;;;;;;;22.50;76.84;97105.66;600679;236;66825;-65
2022/07/21 03:26:43;;;;;;;;;;;;;;;22.50;76.82;97112.90;600726;236;66302;-65
2022/07/21 03:29:10;;;;;;;;;;;;;;;22.50;76.84;97111.02;600715;236;62763;-65
2022/07/21 03:31:38;;;;;;;;;;;;;;;22.49;76.92;97109.42;600698;236;66890;-65
2022/07/21 03:34:06;;;;;;;;;;;;;;;22.50;76.92;97116.38;600670;236;64852;-72
2022/07/21 03:36:33;;;;;;;;;;;;;;;22.51;76.97;97111.84;600703;236;62555;-72
2022/07/21 03:39:01;;;;;;;;;;;;;;;22.51;77.01;97117.20;600708;236;64533;-72
2022/07/21 03:41:28;;;;;;;;;;;;;;;22.50;76.94;97107.55;600708;236;67785;-72
2022/07/21 03:43:56;;;;;;;;;;;;;;;22.49;76.95;97117.46;600687;236;62600;-65
2022/07/21 03:46:24;;;;;;;;;;;;;;;22.50;76.98;97111.02;600678;236;66885;-65
2022/07/21 03:48:51;;;;;;;;;;;;;;;22.50;76.95;97116.38;600704;236;64424;-65
2022/07/21 03:51:19;;;;;;;;;;;;;;;22.50;76.91;97115.58;600741;236;62719;-65
2022/07/21 03:53:46;;;;;;;;;;;;;;;22.49;76.95;97109.42;600717;236;66666;-65
2022/07/21 03:56:14;;;;;;;;;;;;;;;22.50;77.15;97110.22;598221;236;66759;-65
2022/07/21 03:58:41;;;;;;;;;;;;;;;22.50;77.03;97120.94;596233;238;64932;-65
2022/07/21 04:01:09;;;;;;;;;;;;;;;22.49;77.08;97114.78;596218;238;67087;-65
2022/07/21 04:03:36;;;;;;;;;;;;;;;22.49;77.14;97114.78;596266;238;66920;-65
2022/07/21 04:06:04;;;;;;;;;;;;;;;22.49;77.10;97112.11;596246;238;64870;-65
2022/07/21 04:08:31;;;;;;;;;;;;;;;22.49;77.16;97124.70;596269;238;66699;-65
2022/07/21 04:10:59;;;;;;;;;;;;;;;22.49;77.12;97127.37;596274;238;66739;-65
2022/07/21 04:13:27;;;;;;;;;;;;;;;22.49;77.07;97120.14;596233;238;64925;-72
2022/07/21 04:15:54;;;;;;;;;;;;;;;22.50;77.14;97123.61;596255;238;64516;-72
2022/07/21 04:18:22;;;;;;;;;;;;;;;22.48;77.19;97125.76;596270;238;64574;-72
2022/07/21 04:20:49;;;;;;;;;;;;;;;22.48;77.20;97118.55;596251;238;65230;-72
2022/07/21 04:23:17;;;;;;;;;;;;;;;22.50;77.30;97126.29;596226;238;64350;-72
2022/07/21 04:25:44;;;;;;;;;;;;;;;22.48;77.36;97133.80;596244;238;66990;-72
2022/07/21 04:28:12;;;;;;;;;;;;;;;22.48;77.29;97131.94;596243;238;64907;-72
2022/07/21 04:30:39;;;;;;;;;;;;;;;22.48;77.28;97131.94;596289;238;64430;-72
2022/07/21 04:33:07;;;;;;;;;;;;;;;22.48;77.30;97125.76;596283;238;64554;-72
2022/07/21 04:35:35;;;;;;;;;;;;;;;22.48;77.32;97131.94;596288;238;62686;-72
2022/07/21 04:38:04;;;;;;;;;;;;;;;22.48;77.26;97129.27;596312;238;66813;-72
2022/07/21 04:40:32;;;;;;;;;;;;;;;22.48;77.29;97139.98;596285;238;67282;-72
2022/07/21 04:42:59;;;;;;;;;;;;;;;22.48;77.27;97133.80;596309;238;64939;-72
2022/07/21 04:45:27;;;;;;;;;;;;;;;22.48;77.39;97134.62;596285;238;66658;-72
2022/07/21 04:47:55;;;;;;;;;;;;;;;22.48;77.47;97129.27;596282;238;66676;-72
2022/07/21 04:50:24;;;;;;;;;;;;;;;22.49;77.37;97130.85;596444;238;64880;-65
2022/07/21 04:52:52;;;;;;;;;;;;;;;22.49;77.49;97132.73;596279;238;66428;-65
2022/07/21 04:55:20;;;;;;;;;;;;;;;22.48;77.35;97139.98;596810;236;64276;-65
2022/07/21 04:57:49;;;;;;;;;;;;;;;22.48;77.44;97136.47;600738;236;64950;-65
2022/07/21 05:00:21;;;;;;;;;;;;;;;22.48;77.42;97133.80;600721;236;66745;-65
2022/07/21 05:02:48;;;;;;;;;;;;;;;22.48;77.43;97147.19;600742;236;66809;-65
2022/07/21 05:05:16;;;;;;;;;;;;;;;22.48;77.55;97139.98;600740;236;62760;-65
2022/07/21 05:07:43;;;;;;;;;;;;;;;22.48;77.51;97144.50;600482;236;64296;-65
2022/07/21 05:10:13;;;;;;;;;;;;;;;22.48;77.52;97142.66;600636;236;64595;-65
2022/07/21 05:12:40;;;;;;;;;;;;;;;22.48;77.51;97141.83;600649;235;64925;-65
2022/07/21 05:15:11;;;;;;;;;;;;;;;22.48;77.49;97144.50;600385;236;67216;-65
2022/07/21 05:17:38;;;;;;;;;;;;;;;22.48;77.46;97144.50;600353;236;66760;-65
2022/07/21 05:20:06;;;;;;;;;;;;;;;22.48;77.51;97147.19;600728;236;64923;-65
2022/07/21 05:22:35;;;;;;;;;;;;;;;22.48;77.58;97147.19;600709;236;66646;-65
2022/07/21 05:25:03;;;;;;;;;;;;;;;22.48;77.60;97139.15;600735;236;66810;-71
2022/07/21 05:27:31;;;;;;;;;;;;;;;22.47;77.75;97133.00;600713;236;65009;-72
2022/07/21 05:29:59;;;;;;;;;;;;;;;22.47;77.66;97134.88;600719;236;66700;-72
2022/07/21 05:32:26;;;;;;;;;;;;;;;22.47;77.75;97132.20;600680;236;64471;-72
2022/07/21 05:34:54;;;;;;;;;;;;;;;22.47;77.72;97138.36;600672;236;62800;-72
2022/07/21 05:37:21;;;;;;;;;;;;;;;22.47;77.75;97126.84;600681;236;64460;-72
2022/07/21 05:39:49;;;;;;;;;;;;;;;22.47;77.63;97130.32;600697;236;66655;-72
2022/07/21 05:42:17;;;;;;;;;;;;;;;22.47;77.72;97129.52;600665;236;62742;-72
2022/07/21 05:44:45;;;;;;;;;;;;;;;22.47;77.53;97126.84;600505;236;66731;-72
2022/07/21 05:47:12;;;;;;;;;;;;;;;22.47;77.61;97132.20;600660;236;66809;-73
2022/07/21 05:49:41;;;;;;;;;;;;;;;22.48;77.52;97133.80;600670;236;64907;-72
2022/07/21 05:52:10;;;;;;;;;;;;;;;22.48;79.23;97133.80;600644;236;67706;-74
2022/07/21 05:54:37;;;;;;;;;;;;;;;22.46;77.78;97130.61;600530;236;66795;-68
2022/07/21 05:57:05;;;;;;;;;;;;;;;22.46;77.79;97135.97;596651;236;64903;-64
2022/07/21 05:59:33;;;;;;;;;;;;;;;22.52;77.80;97135.65;596167;238;67042;-64
2022/07/21 06:02:00;;;;;;;;;;;;;;;22.52;78.12;97137.53;596167;238;67485;-65
2022/07/21 06:04:28;;;;;;;;;;;;;;;22.49;78.44;97136.20;596197;238;64979;-64
2022/07/21 06:06:55;;;;;;;;;;;;;;;22.48;78.57;97131.94;595560;238;67327;-65
2022/07/21 06:09:23;;;;;;;;;;;;;;;22.47;78.10;97138.36;596182;238;64805;-64
2022/07/21 06:11:50;;;;;;;;;;;;;;;22.47;78.13;97137.56;596178;238;62765;-65
2022/07/21 06:14:18;;;;;;;;;;;;;;;22.46;78.61;97133.30;596007;238;67354;-64
2022/07/21 06:16:45;;;;;;;;;;;;;;;22.45;77.20;97119.08;595900;235;67046;-64
2022/07/21 06:19:13;;;;;;;;;;;;;;;22.45;76.95;97124.44;601109;235;64891;-64
2022/07/21 06:21:40;;;;;;;;;;;;;;;22.46;77.12;97125.26;601654;236;66760;-65
2022/07/21 06:24:08;;;;;;;;;;;;;;;22.48;78.05;97123.08;601573;236;66845;-64
2022/07/21 06:26:38;;;;;;;;;;;;;;;22.48;79.46;97123.08;601671;236;64915;-65
2022/07/21 06:29:06;;;;;;;;;;;;;;;22.47;79.66;97118.81;601589;236;67342;-64
2022/07/21 06:31:34;;;;;;;;;;;;;;;22.47;79.77;97111.58;601657;236;66949;-65
2022/07/21 06:34:01;;;;;;;;;;;;;;;22.46;79.69;97109.98;601372;236;65486;-65
2022/07/21 06:36:29;;;;;;;;;;;;;;;22.46;79.83;97107.30;601613;236;64725;-65
2022/07/21 06:38:56;;;;;;;;;;;;;;;22.47;80.06;97108.89;601601;236;64951;-64
2022/07/21 06:41:24;;;;;;;;;;;;;;;22.47;79.19;97110.78;601655;236;65059;-66
2022/07/21 06:43:52;;;;;;;;;;;;;;;22.52;79.02;97105.39;601524;236;67028;-66
2022/07/21 06:46:19;;;;;;;;;;;;;;;22.51;79.39;97098.45;601636;236;67021;-73
2022/07/21 06:48:47;;;;;;;;;;;;;;;22.50;79.24;97094.16;601618;236;64857;-74
2022/07/21 06:51:14;;;;;;;;;;;;;;;22.49;78.95;97088.00;601590;236;67386;-74
2022/07/21 06:53:42;;;;;;;;;;;;;;;22.50;79.08;97091.47;596346;236;70365;-72
2022/07/21 06:56:10;;;;;;;;;;;;;;;22.50;79.29;97091.47;599897;236;65765;-73
2022/07/21 06:58:37;;;;;;;;;;;;;;;22.50;79.56;97091.47;598432;237;67130;-72
2022/07/21 07:01:05;;;;;;;;;;;;;;;22.50;79.65;97086.91;598427;237;66881;-72
2022/07/21 07:03:33;;;;;;;;;;;;;;;22.50;79.61;97084.23;598372;237;64880;-66
2022/07/21 07:06:00;;;;;;;;;;;;;;;22.50;79.61;97080.77;598444;237;64673;-65
2022/07/21 07:08:28;;;;;;;;;;;;;;;22.50;79.60;97081.55;598000;236;66805;-73
2022/07/21 07:10:55;;;;;;;;;;;;;;;22.50;79.70;97075.41;597640;236;62577;-73
2022/07/21 07:13:23;;;;;;;;;;;;;;;22.50;79.24;97072.73;597171;237;67042;-74
2022/07/21 07:15:50;;;;;;;;;;;;;;;22.51;79.58;97074.34;597240;237;67194;-73
2022/07/21 07:18:20;;;;;;;;;;;;;;;22.50;79.63;97072.73;597255;237;65107;-73
2022/07/21 07:20:48;;;;;;;;;;;;;;;22.51;79.65;97071.67;597266;237;67347;-73
2022/07/21 07:23:15;;;;;;;;;;;;;;;22.51;79.60;97077.02;597179;237;66898;-73
2022/07/21 07:25:43;;;;;;;;;;;;;;;22.51;79.58;97075.14;597185;237;64868;-73
2022/07/21 07:28:10;;;;;;;;;;;;;;;22.51;79.55;97074.34;597257;237;67210;-73
2022/07/21 07:30:38;;;;;;;;;;;;;;;22.51;79.66;97068.98;597251;237;66967;-73
2022/07/21 07:33:06;;;;;;;;;;;;;;;22.51;79.80;97067.11;597285;237;62821;-73
2022/07/21 07:35:34;;;;;;;;;;;;;;;22.51;79.65;97075.14;597153;237;64712;-73
2022/07/21 07:38:01;;;;;;;;;;;;;;;22.52;79.65;97070.58;597194;237;66879;-73
2022/07/21 07:40:29;;;;;;;;;;;;;;;22.51;79.62;97068.98;597175;237;64911;-73
2022/07/21 07:42:57;;;;;;;;;;;;;;;22.52;79.73;97075.94;597229;237;65098;-73
2022/07/21 07:45:24;;;;;;;;;;;;;;;22.52;79.72;97079.41;597251;237;64338;-73
2022/07/21 07:47:52;;;;;;;;;;;;;;;22.52;79.63;97078.61;597206;237;65121;-73
2022/07/21 07:50:20;;;;;;;;;;;;;;;22.52;79.64;97078.61;597251;237;68376;-76
2022/07/21 07:52:47;;;;;;;;;;;;;;;22.52;79.63;97081.29;597210;237;64693;-73
2022/07/21 07:55:15;;;;;;;;;;;;;;;22.52;79.46;97078.61;597168;235;62659;-72
2022/07/21 07:57:43;;;;;;;;;;;;;;;22.52;79.33;97079.41;597331;237;65760;-73
2022/07/21 08:00:12;;;;;;;;;;;;;;;22.52;79.45;97075.94;597094;237;67181;-74
2022/07/21 08:02:40;;;;;;;;;;;;;;;22.53;79.52;97072.17;597190;237;65093;-75
2022/07/21 08:05:10;;;;;;;;;;;;;;;22.52;79.54;97068.70;597385;237;67216;-74
2022/07/21 08:07:38;;;;;;;;;;;;;;;22.53;78.87;97072.96;597140;237;65051;-74
2022/07/21 08:10:07;;;;;;;;;;;;;;;22.54;78.88;97071.11;597232;237;64978;-74
2022/07/21 08:12:34;;;;;;;;;;;;;;;22.53;79.04;97074.84;597235;237;65045;-66
2022/07/21 08:15:02;;;;;;;;;;;;;;;22.54;79.00;97071.91;597151;237;64849;-66
2022/07/21 08:17:30;;;;;;;;;;;;;;;22.54;79.07;97065.75;597176;237;62841;-65
2022/07/21 08:19:57;;;;;;;;;;;;;;;22.55;79.01;97075.38;597265;237;67106;-67
2022/07/21 08:22:24;;;;;;;;;;;;;;;22.54;79.13;97071.91;597232;237;66645;-66
2022/07/21 08:24:52;;;;;;;;;;;;;;;22.54;79.06;97073.78;597306;237;64948;-71
2022/07/21 08:27:19;;;;;;;;;;;;;;;22.55;79.04;97064.66;597214;237;67020;-65
2022/07/21 08:29:47;;;;;;;;;;;;;;;22.55;79.00;97059.30;597140;237;67201;-68
2022/07/21 08:32:15;;;;;;;;;;;;;;;22.55;79.02;97056.63;597262;237;62675;-68
2022/07/21 08:34:42;;;;;;;;;;;;;;;22.55;79.32;97057.42;597242;237;65831;-68
2022/07/21 08:37:09;;;;;;;;;;;;;;;22.55;78.70;97056.63;597247;237;64819;-67
2022/07/21 08:39:37;;;;;;;;;;;;;;;22.55;78.79;97056.63;597244;237;62809;-68
2022/07/21 08:42:07;;;;;;;;;;;;;;;22.56;78.70;97056.36;597250;237;67047;-67
2022/07/21 08:44:35;;;;;;;;;;;;;;;22.56;78.82;97059.03;597246;237;66635;-67
2022/07/21 08:47:04;;;;;;;;;;;;;;;22.57;79.02;97046.44;597315;237;64161;-67
2022/07/21 08:49:32;;;;;;;;;;;;;;;22.57;79.05;97049.12;597214;237;66285;-68
2022/07/21 08:52:01;;;;;;;;;;;;;;;22.57;78.86;97055.27;597202;237;66664;-68
2022/07/21 08:54:29;;;;;;;;;;;;;;;22.57;79.12;97052.59;597182;237;62856;-67
2022/07/21 08:56:56;;;;;;;;;;;;;;;22.58;78.95;97056.06;602519;235;67102;-67
2022/07/21 08:59:24;;;;;;;;;;;;;;;22.58;78.95;97053.38;601614;235;66616;-68
2022/07/21 09:01:51;;;;;;;;;;;;;;;22.59;79.04;97049.64;599851;236;62730;-67
2022/07/21 09:04:21;;;;;;;;;;;;;;;22.58;79.08;97040.78;600732;235;64651;-67
2022/07/21 09:06:56;;;;;;;;;;;;;;;22.59;79.11;97044.29;597237;237;66690;-67
2022/07/21 09:09:27;;;;;;;;;;;;;;;22.58;79.11;97039.98;597503;237;45022;-69
2022/07/21 09:11:56;;;;;;;;;;;;;;;22.58;79.37;97035.42;597539;237;67086;-68
2022/07/21 09:14:25;;;;;;;;;;;;;;;22.58;79.27;97043.46;599707;235;66920;-66
2022/07/21 09:16:54;;;;;;;;;;;;;;;22.57;79.29;97031.16;604037;235;63049;-67
2022/07/21 09:19:23;;;;;;;;;;;;;;;22.59;79.31;97028.22;604052;235;67046;-66
2022/07/21 09:21:52;;;;;;;;;;;;;;;22.59;79.39;97025.53;603791;235;66932;-67
2022/07/21 09:24:29;;;;;;;;;;;;;;;22.58;79.38;97032.75;603955;235;64868;-67
2022/07/21 09:27:06;;;;;;;;;;;;;;;22.59;79.24;97028.22;603484;235;69647;-67
2022/07/21 09:29:38;;;;;;;;;;;;;;;22.59;79.24;97028.22;603834;234;66887;-67
2022/07/21 09:32:13;;;;;;;;;;;;;;;22.59;79.49;97026.33;596667;237;65280;-68
2022/07/21 09:34:41;;;;;;;;;;;;;;;22.58;79.31;97016.68;603162;235;65826;-67
2022/07/21 09:37:09;;;;;;;;;;;;;;;22.59;79.33;97022.86;600720;236;66810;-66
2022/07/21 09:39:44;;;;;;;;;;;;;;;22.59;79.40;97017.50;603502;234;65054;-67
2022/07/21 09:42:13;;;;;;;;;;;;;;;22.59;79.46;97023.66;597271;237;67403;-67
2022/07/21 09:44:45;;;;;;;;;;;;;;;22.59;79.45;97028.22;603915;234;67178;-67
2022/07/21 09:47:14;;;;;;;;;;;;;;;22.59;79.34;97029.02;602421;235;65107;-66
2022/07/21 09:49:42;;;;;;;;;;;;;;;22.59;79.20;97012.15;604148;235;65117;-67
2022/07/21 09:52:23;;;;;;;;;;;;;;;22.60;79.26;97021.77;604194;233;65101;-67
2022/07/21 09:54:51;;;;;;;;;;;;;;;22.59;79.37;97023.66;602269;235;62768;-67
2022/07/21 09:57:20;;;;;;;;;;;;;;;22.59;79.42;97017.50;601510;235;65044;-67
2022/07/21 09:59:48;;;;;;;;;;;;;;;22.60;79.35;97027.92;601607;236;67186;-67
2022/07/21 10:02:17;;;;;;;;;;;;;;;22.59;79.47;97018.30;600848;236;62749;-68
2022/07/21 10:04:49;;;;;;;;;;;;;;;22.59;79.29;97020.98;601565;236;66865;-67
2022/07/21 10:07:17;;;;;;;;;;;;;;;22.60;79.38;97030.59;601524;234;64511;-68
2022/07/21 10:09:44;;;;;;;;;;;;;;;22.60;79.36;97017.20;600779;236;65009;-69
2022/07/21 10:12:12;;;;;;;;;;;;;;;22.61;79.31;97026.03;601201;236;67312;-69
2022/07/21 10:14:40;;;;;;;;;;;;;;;22.61;79.17;97015.32;601684;236;67038;-67
2022/07/21 10:17:08;;;;;;;;;;;;;;;22.60;79.20;97006.49;601014;236;64974;-67
2022/07/21 10:19:43;;;;;;;;;;;;;;;22.61;79.06;97021.47;601553;236;66899;-67
2022/07/21 10:22:15;;;;;;;;;;;;;;;22.61;78.83;97009.96;599809;236;64808;-66
2022/07/21 10:24:43;;;;;;;;;;;;;;;22.63;78.78;97013.17;601468;234;64954;-65
2022/07/21 10:27:12;;;;;;;;;;;;;;;22.63;78.44;97013.17;601636;236;67142;-68
2022/07/21 10:29:52;;;;;;;;;;;;;;;22.63;78.12;97017.73;601597;236;68023;-67
2022/07/21 10:32:21;;;;;;;;;;;;;;;22.63;78.54;97013.17;601461;236;62797;-67
2022/07/21 10:34:49;;;;;;;;;;;;;;;22.64;78.21;97014.75;601553;236;67076;-67
2022/07/21 10:37:27;;;;;;;;;;;;;;;22.64;78.49;97004.04;601537;236;67156;-67
2022/07/21 10:39:54;;;;;;;;;;;;;;;22.65;78.62;97007.55;598018;236;62822;-67
2022/07/21 10:42:22;;;;;;;;;;;;;;;22.64;78.75;97003.25;601600;236;64817;-67
2022/07/21 10:44:49;;;;;;;;;;;;;;;22.64;78.95;97009.40;601603;236;66897;-67
2022/07/21 10:47:23;;;;;;;;;;;;;;;22.65;78.64;97011.02;601548;236;62725;-67
2022/07/21 10:49:52;;;;;;;;;;;;;;;22.64;78.66;97006.72;601593;236;67041;-68
2022/07/21 10:52:38;;;;;;;;;;;;;;;22.65;78.71;97004.86;601562;236;66616;-68
2022/07/21 10:55:23;;;;;;;;;;;;;;;22.65;78.60;96992.27;601665;234;65001;-67
2022/07/21 10:57:48;;;;;;;;;;;;;;;22.64;78.53;97004.04;603946;234;64953;-68
2022/07/21 11:00:19;;;;;;;;;;;;;;;22.65;78.53;96997.63;604166;235;65062;-67
2022/07/21 11:02:48;;;;;;;;;;;;;;;22.65;78.61;96986.11;604212;235;66010;-66
2022/07/21 11:05:16;;;;;;;;;;;;;;;22.65;78.74;96992.27;604129;235;64921;-66
2022/07/21 11:08:01;;;;;;;;;;;;;;;22.65;78.66;96992.27;604139;235;67024;-66
2022/07/21 11:10:31;;;;;;;;;;;;;;;22.66;78.54;96990.37;604190;235;62735;-66
2022/07/21 11:12:58;;;;;;;;;;;;;;;22.65;78.48;96986.91;604126;235;65321;-66
2022/07/21 11:15:46;;;;;;;;;;;;;;;22.65;78.46;96980.76;604176;235;66991;-66
2022/07/21 11:18:24;;;;;;;;;;;;;;;22.68;78.12;96989.02;604236;235;65116;-66
2022/07/21 11:21:09;;;;;;;;;;;;;;;22.69;77.04;96979.89;604133;235;66770;-66
2022/07/21 11:23:42;;;;;;;;;;;;;;;22.69;77.50;96985.25;604165;235;64817;-69
2022/07/21 11:26:10;;;;;;;;;;;;;;;22.68;77.89;96980.98;604160;235;65041;-69
2022/07/21 11:28:38;;;;;;;;;;;;;;;22.67;78.18;96976.72;604118;235;67461;-69
2022/07/21 11:31:11;;;;;;;;;;;;;;;22.67;78.25;96965.18;604073;235;67287;-76
2022/07/21 11:33:40;;;;;;;;;;;;;;;22.68;78.37;96969.47;603908;233;62837;-76
2022/07/21 11:36:08;;;;;;;;;;;;;;;22.67;78.40;96963.32;604008;235;67038;-76
2022/07/21 11:38:35;;;;;;;;;;;;;;;22.67;78.16;96971.36;604032;235;66847;-76
2022/07/21 11:41:15;;;;;;;;;;;;;;;22.68;77.94;96975.63;604139;235;62791;-76
2022/07/21 11:43:44;;;;;;;;;;;;;;;22.68;77.34;96962.23;604196;235;67217;-67
2022/07/21 11:46:12;;;;;;;;;;;;;;;22.71;72.99;96971.58;604163;235;65092;-64
2022/07/21 11:48:40;;;;;;;;;;;;;;;22.74;73.50;96979.84;604104;235;62829;-65
2022/07/21 11:51:07;;;;;;;;;;;;;;;22.75;75.34;96967.24;603541;235;67051;-66
2022/07/21 11:53:35;;;;;;;;;;;;;;;22.74;76.89;96969.13;603596;235;67026;-65
2022/07/21 11:56:04;;;;;;;;;;;;;;;22.73;76.47;96953.36;602837;235;65216;-65
2022/07/21 11:58:32;;;;;;;;;;;;;;;22.73;77.17;96958.71;602150;234;67221;-66
2022/07/21 12:01:06;;;;;;;;;;;;;;;22.72;77.42;96960.56;602322;235;67086;-67
2022/07/21 12:03:34;;;;;;;;;;;;;;;22.76;72.87;96953.58;602241;235;65958;-68
2022/07/21 12:06:02;;;;;;;;;;;;;;;22.78;71.32;96951.42;602273;235;67033;-66
2022/07/21 12:08:30;;;;;;;;;;;;;;;22.78;75.64;96951.42;602298;235;66859;-75
2022/07/21 12:11:08;;;;;;;;;;;;;;;22.76;76.21;96948.22;602245;235;64870;-74
2022/07/21 12:13:53;;;;;;;;;;;;;;;22.74;76.30;96953.05;602299;235;68008;-73
2022/07/21 12:16:21;;;;;;;;;;;;;;;22.74;76.52;96954.94;602108;235;66074;-75
2022/07/21 12:18:48;;;;;;;;;;;;;;;22.73;76.48;96954.14;602300;235;62797;-75
2022/07/21 12:21:16;;;;;;;;;;;;;;;22.73;76.47;96946.11;602358;235;65091;-74
2022/07/21 12:23:43;;;;;;;;;;;;;;;22.73;76.62;96946.11;602288;235;64781;-74
2022/07/21 12:26:12;;;;;;;;;;;;;;;22.73;76.62;96932.72;602382;235;62799;-73
2022/07/21 12:28:47;;;;;;;;;;;;;;;22.73;76.84;96927.36;602214;234;67254;-74
2022/07/21 12:31:20;;;;;;;;;;;;;;;22.74;76.73;96930.83;602254;235;67081;-74
2022/07/21 12:33:45;;;;;;;;;;;;;;;22.73;76.81;96922.00;602317;234;62863;-74
2022/07/21 12:36:13;;;;;;;;;;;;;;;22.73;76.89;96922.00;602303;235;64623;-75
2022/07/21 12:38:42;;;;;;;;;;;;;;;22.75;76.95;96919.02;602319;235;64657;-75
2022/07/21 12:41:11;;;;;;;;;;;;;;;22.75;76.94;96919.84;602313;235;64856;-75
2022/07/21 12:43:38;;;;;;;;;;;;;;;22.75;76.91;96925.20;602290;233;67025;-75
2022/07/21 12:46:11;;;;;;;;;;;;;;;22.75;76.85;96914.48;602219;235;66714;-74
2022/07/21 12:48:39;;;;;;;;;;;;;;;22.77;76.97;96919.54;602345;235;65212;-74
2022/07/21 12:51:09;;;;;;;;;;;;;;;22.76;77.10;96918.75;602342;235;67143;-74
2022/07/21 12:53:38;;;;;;;;;;;;;;;22.76;77.07;96917.95;602330;235;65006;-74
2022/07/21 12:56:07;;;;;;;;;;;;;;;22.76;77.02;96910.71;602321;235;62691;-74
2022/07/21 12:58:36;;;;;;;;;;;;;;;22.77;76.95;96914.97;602389;235;64326;-75